Portada
METAR-TAF:

METAR-TAF

Aeropuertos :

Murcia, España

Aeropuerto de Murcia-San Javier

latitud: 37-47N, longitud: 000-48W, altitud: 5 m

Observación

El informe se hizo hace 5 horas y 59 minutos, a las 21:00 UTC
Viento 7 kt del norte-noreste
Temperatura 15°C
Humedad 88%
Presión 1021 hPa
Visibilidad 10 km o más
Nubes dispersas a una altura de 5400 ft

METAR: LELC 172100Z 02007KT 9999 SCT054 15/13 Q1021 NOSIG

Hora: 03:59 (02:59 UTC)

Pronóstico

El informe se hizo hace 3 horas y 59 minutos, a las 23:00 UTC
Pronóstico válido del 18 a las 00 UTC al 18 a las 24 UTC
Viento 12 kt del noreste
Visibilidad 10 km o más
sin nubes por debajo de 1500 m y sin presencia de cumulonimbus.

TAF: LELC 172300Z 1800/1824 05012KT CAVOK TX17/1815Z TN11/1807Z

Observaciones y pronósticos meteorológicos de más de 4000 aeropuertos (mensajes METAR y TAF).

Los puntos amarillos y rojos representan las estaciones disponibles.

Ponga el ratón en el punto deseado para ver el nombre de la estación.

Haga clic para ver las observaciones y los pronósticos meteorológicos.

Para cambiar el mapa : haga clic en los botones verdes con una cruz de color negro para hacer un zoom, en el botón verde con un guión para alejar o en las flechas verdes para mapas adyacentes.


METAR-TAF: